Guarani International Airport
SGES : rendu visible

Aérodrome :











RETROUVEZ-NOUS SUR...

 
LOGIN :

S'inscrire | Disclaimer

   EN    FR    IT 

 









Légende :    VFR   VFR Marginal   IFR   IFR Intensif   IFR Très Intensif
Visi : 
Plafond : 
>= 8 km
>= 3000ft
5 à 8 km
1000 à 3000 ft
1500m à 5 km
500 à 1000 ft
800 à 1500m
200 à 500 ft
< 800m
< 200 ft
Symboles :   Orages  Brouillard  Fortes neiges  Fortes précipitations  Vent > 20 kt






- Altitude de l'aérodrome : 846 ft
- Code IATA : AGT


SGES - Guarani International

DERNIER METAR :
  • 011300Z 21005KT 9999 OVC004 13/12 Q1019

METARs EXPIRÉS :
  • 011230Z 23008KT 9000 OVC004 13/13 Q1019
  • 011200Z 23009KT 9000 OVC004 13/13 Q1018
  • 011130Z 23008KT 7000 OVC003 13/13 Q1018
  • 011100Z 23008KT 1000 FG OVC003 13/13 Q1018 REDZ

TAF TAF SGES
Valide du 01 à 12h jusqu'au 02 à 12h UTC


011050Z 0112/0212 24007KT 1000 FG DZ OVC008 TX15/0119Z TN10/0209Z
BECMG 0114/0117 18010KT 5000 BR DZ OVC017
BECMG 0120/0123 9999 -DZ BKN017
BECMG 0202/0205 21007KT 9000 DZ OVC010
TEMPO 0208/0210 18010KT 6000 DZ OVC010
FIR SGFA / Amérique du Sud



MET'MAP, la Météo Aéronautique d'un coup d'oeil ! - Copyright ORBIFLY Décembre 2007 - Disclaimer

ORBIFLY MET'MAP TEAM :

Programmation & Développement : Alexandra Zaïnal
Sur une idée originale de : Baudouin d'Aumeries
Assistance à la programmation : Marc-Olivier Méhu
Soutien technique & logistique : Manuel Goepfert

Contact : metmap@orbifly.com




SOURCES & CREDITS :

   NOAA       Earth
Advisory